Time;durP1;ratioP1;P1;durP2;ratioP2;P2;SDS_P1;SDS_P2;PMS_P1;PMS_P2;Temp;Humidity;BMP_temperature;BMP_pressure;BME280_temperature;BME280_humidity;BME280_pressure;Samples;Min_cycle;Max_cycle;Signal;HPM_P1;HPM_P2
2023/09/02 00:01:40;;;;;;;8.80;4.93;;;18.50;29.40;;;;;;5005713;28;20480;-68
2023/09/02 00:04:08;;;;;;;9.23;5.10;;;18.40;29.60;;;;;;5007990;28;20487;-68
2023/09/02 00:06:35;;;;;;;11.73;5.00;;;18.40;29.80;;;;;;5006375;28;20456;-68
2023/09/02 00:09:01;;;;;;;8.77;5.50;;;18.40;29.90;;;;;;5007552;28;20847;-68
2023/09/02 00:11:29;;;;;;;12.83;4.73;;;18.40;30.10;;;;;;5008092;28;20456;-68
2023/09/02 00:13:56;;;;;;;8.93;5.20;;;18.40;30.20;;;;;;5007217;28;20475;-68
2023/09/02 00:16:23;;;;;;;7.97;4.80;;;18.30;30.30;;;;;;5003468;28;20471;-68
2023/09/02 00:18:50;;;;;;;9.23;4.70;;;18.30;30.50;;;;;;5008298;28;20463;-68
2023/09/02 00:21:16;;;;;;;8.47;4.57;;;18.30;30.60;;;;;;5007140;28;20463;-68
2023/09/02 00:23:45;;;;;;;9.03;5.17;;;18.20;31.50;;;;;;5005605;28;20495;-68
2023/09/02 00:26:11;;;;;;;9.00;5.20;;;18.20;30.90;;;;;;5005621;28;20959;-68
2023/09/02 00:28:39;;;;;;;9.53;4.90;;;18.20;31.00;;;;;;5007010;28;20459;-68
2023/09/02 00:31:06;;;;;;;7.90;4.90;;;18.20;31.40;;;;;;5007107;28;20475;-68
2023/09/02 00:33:33;;;;;;;9.23;4.63;;;18.20;31.50;;;;;;5007072;28;20860;-68
2023/09/02 00:36:00;;;;;;;7.50;5.17;;;18.20;31.70;;;;;;5005314;28;20466;-68
2023/09/02 00:38:26;;;;;;;8.93;5.77;;;18.20;31.90;;;;;;5006490;28;20479;-68
2023/09/02 00:41:00;;;;;;;8.90;5.27;;;18.10;32.20;;;;;;5007379;28;20456;-68
2023/09/02 00:43:27;;;;;;;9.77;5.10;;;18.10;32.50;;;;;;5007785;28;20899;-68
2023/09/02 00:45:56;;;;;;;13.50;5.77;;;18.10;32.30;;;;;;5008066;28;20479;-68
2023/09/02 00:48:22;;;;;;;7.50;4.40;;;18.10;32.20;;;;;;5010231;28;20471;-68
2023/09/02 00:50:49;;;;;;;8.47;4.90;;;18.10;32.20;;;;;;5009885;28;20466;-68
2023/09/02 00:53:18;;;;;;;9.10;4.90;;;18.10;32.10;;;;;;5009512;28;20475;-68
2023/09/02 00:55:45;;;;;;;11.87;4.80;;;18.00;32.00;;;;;;5010834;28;20455;-68
2023/09/02 00:58:12;;;;;;;7.53;4.17;;;18.00;31.90;;;;;;5009898;28;20940;-68
2023/09/02 01:00:39;;;;;;;8.87;4.90;;;18.00;31.90;;;;;;5006785;28;20514;-68
2023/09/02 01:03:07;;;;;;;6.60;4.40;;;18.00;31.90;;;;;;5010588;28;21003;-68
2023/09/02 01:05:35;;;;;;;9.87;4.97;;;17.90;31.90;;;;;;5011589;28;20488;-68
2023/09/02 01:08:03;;;;;;;6.83;4.20;;;17.90;31.80;;;;;;5011091;28;20483;-68
2023/09/02 01:10:33;;;;;;;8.50;5.27;;;17.90;31.80;;;;;;5010296;28;20488;-68
2023/09/02 01:13:02;;;;;;;7.90;4.50;;;17.90;31.80;;;;;;5009813;28;20485;-68
2023/09/02 01:15:29;;;;;;;8.70;4.73;;;17.90;31.80;;;;;;5008545;28;20448;-68
2023/09/02 01:17:55;;;;;;;9.10;5.27;;;17.80;31.70;;;;;;5011046;28;20466;-68
2023/09/02 01:20:28;;;;;;;7.97;5.00;;;17.80;31.80;;;;;;5009151;28;20451;-68
2023/09/02 01:23:18;;;;;;;6.63;4.23;;;17.80;31.80;;;;;;5011271;28;20538;-68
2023/09/02 01:26:09;;;;;;;7.67;4.70;;;17.80;32.10;;;;;;5010247;28;20483;-68
2023/09/02 01:28:40;;;;;;;7.90;5.10;;;17.70;32.20;;;;;;5010121;28;20828;-68
2023/09/02 01:31:09;;;;;;;6.77;4.70;;;17.70;32.10;;;;;;5001456;28;20472;-68
2023/09/02 01:33:37;;;;;;;6.87;5.07;;;17.70;32.10;;;;;;5010196;28;21088;-69
2023/09/02 01:36:04;;;;;;;8.87;4.73;;;17.60;32.10;;;;;;5008602;28;20494;-68
2023/09/02 01:38:33;;;;;;;6.70;4.40;;;17.60;32.20;;;;;;5011072;28;20464;-68
2023/09/02 01:41:04;;;;;;;8.60;4.87;;;17.60;32.20;;;;;;5009800;28;20456;-68
2023/09/02 01:43:31;;;;;;;9.10;5.30;;;17.60;32.50;;;;;;5009993;28;20480;-68
2023/09/02 01:45:59;;;;;;;9.20;5.83;;;17.50;32.60;;;;;;5009189;28;20479;-68
2023/09/02 01:48:27;;;;;;;8.20;5.20;;;17.50;32.70;;;;;;5007089;28;20468;-68
2023/09/02 01:50:54;;;;;;;10.10;5.27;;;17.50;32.80;;;;;;5008192;28;20499;-68
2023/09/02 01:53:21;;;;;;;10.23;5.53;;;17.50;32.80;;;;;;5005826;28;20484;-68
2023/09/02 01:55:49;;;;;;;9.60;4.80;;;17.50;32.90;;;;;;5008999;28;20459;-68
2023/09/02 01:58:16;;;;;;;9.33;5.67;;;17.40;32.90;;;;;;5008004;28;20455;-68
2023/09/02 02:00:43;;;;;;;8.03;5.60;;;17.40;32.90;;;;;;5010045;28;20475;-68
2023/09/02 02:03:16;;;;;;;9.20;5.33;;;17.40;32.90;;;;;;5009287;28;20991;-68
2023/09/02 02:05:51;;;;;;;8.20;5.47;;;17.40;33.10;;;;;;5008708;28;20488;-68
2023/09/02 02:08:25;;;;;;;7.53;5.20;;;17.40;33.10;;;;;;5007463;28;20456;-68
2023/09/02 02:10:54;;;;;;;7.30;5.10;;;17.40;33.00;;;;;;5009773;28;20470;-68
2023/09/02 02:13:21;;;;;;;11.20;6.07;;;17.30;33.00;;;;;;5008359;28;20472;-68
2023/09/02 02:15:48;;;;;;;9.43;5.77;;;17.30;32.90;;;;;;5008751;28;20547;-68
2023/09/02 02:18:17;;;;;;;9.07;5.70;;;17.30;33.00;;;;;;5009089;28;20475;-69
2023/09/02 02:20:55;;;;;;;9.20;5.50;;;17.30;33.10;;;;;;5009883;28;20475;-68
2023/09/02 02:23:22;;;;;;;7.53;5.63;;;17.30;33.20;;;;;;5008821;28;20479;-68
2023/09/02 02:25:48;;;;;;;8.90;5.50;;;17.30;33.00;;;;;;5009487;28;20491;-68
2023/09/02 02:28:15;;;;;;;9.03;5.70;;;17.30;33.00;;;;;;5009892;28;20456;-68
2023/09/02 02:30:42;;;;;;;8.60;5.60;;;17.20;32.80;;;;;;5008637;28;20479;-68
2023/09/02 02:33:09;;;;;;;8.10;5.53;;;17.20;32.80;;;;;;5007875;28;21133;-69
2023/09/02 02:35:37;;;;;;;8.63;5.93;;;17.20;32.90;;;;;;5004806;28;20488;-68
2023/09/02 02:38:04;;;;;;;8.43;5.20;;;17.10;33.10;;;;;;5009866;28;20583;-68
2023/09/02 02:40:31;;;;;;;11.17;5.30;;;17.10;33.10;;;;;;5007678;28;20935;-68
2023/09/02 02:42:58;;;;;;;9.93;5.33;;;17.10;33.00;;;;;;5007892;28;20988;-68
2023/09/02 02:45:24;;;;;;;8.90;5.33;;;17.00;33.00;;;;;;5008353;28;20511;-68
2023/09/02 02:47:51;;;;;;;8.97;6.53;;;17.00;33.10;;;;;;5008295;28;20471;-68
2023/09/02 02:50:18;;;;;;;8.40;5.50;;;17.00;33.10;;;;;;5008384;28;20455;-68
2023/09/02 02:52:46;;;;;;;7.83;5.53;;;17.00;33.00;;;;;;5008898;28;20803;-68
2023/09/02 02:55:13;;;;;;;8.43;5.87;;;16.90;33.00;;;;;;5004029;28;20448;-68
2023/09/02 02:57:40;;;;;;;9.47;6.10;;;16.90;33.00;;;;;;5009202;28;20463;-68
2023/09/02 03:00:08;;;;;;;12.10;5.63;;;16.90;33.10;;;;;;5009281;28;20460;-68
2023/09/02 03:02:35;;;;;;;8.67;5.50;;;16.90;33.10;;;;;;5007515;28;20854;-68
2023/09/02 03:05:02;;;;;;;8.33;4.83;;;16.90;33.30;;;;;;5008985;28;20488;-68
2023/09/02 03:07:29;;;;;;;8.77;5.40;;;16.80;33.30;;;;;;5005401;28;20464;-68
2023/09/02 03:09:57;;;;;;;8.30;5.93;;;16.80;33.30;;;;;;4999084;28;21247;-68
2023/09/02 03:12:24;;;;;;;7.17;5.33;;;16.90;33.40;;;;;;5008562;28;20455;-68
2023/09/02 03:14:50;;;;;;;7.93;5.50;;;16.80;33.30;;;;;;5008527;28;20467;-68
2023/09/02 03:17:20;;;;;;;9.67;6.03;;;16.80;33.30;;;;;;5005276;28;20940;-68
2023/09/02 03:19:47;;;;;;;9.67;6.37;;;16.80;33.30;;;;;;5009633;28;20464;-68
2023/09/02 03:22:14;;;;;;;7.60;6.00;;;16.80;33.30;;;;;;5005895;28;20456;-68
2023/09/02 03:24:41;;;;;;;8.77;5.83;;;16.80;33.40;;;;;;5007990;28;20484;-68
2023/09/02 03:27:09;;;;;;;13.50;7.20;;;16.80;33.40;;;;;;5008599;28;20514;-68
2023/09/02 03:29:36;;;;;;;9.23;6.57;;;16.80;33.50;;;;;;5007939;28;20463;-68
2023/09/02 03:32:02;;;;;;;9.10;5.80;;;16.80;33.40;;;;;;5007792;28;20849;-68
2023/09/02 03:34:29;;;;;;;7.60;5.47;;;16.80;33.50;;;;;;5001430;28;20478;-68
2023/09/02 03:36:56;;;;;;;8.40;6.00;;;16.80;33.40;;;;;;5006128;28;20467;-68
2023/09/02 03:39:23;;;;;;;8.43;6.33;;;16.80;33.50;;;;;;5007941;28;20800;-68
2023/09/02 03:41:50;;;;;;;8.50;5.70;;;16.70;33.50;;;;;;5004307;28;20463;-68
2023/09/02 03:44:19;;;;;;;9.87;5.63;;;16.70;33.60;;;;;;5008335;28;20475;-68
2023/09/02 03:46:45;;;;;;;16.80;6.07;;;16.70;33.60;;;;;;5008107;28;20529;-68
2023/09/02 03:49:12;;;;;;;8.30;5.97;;;16.80;33.60;;;;;;5008406;28;20467;-68
2023/09/02 03:51:39;;;;;;;7.87;5.40;;;16.80;33.50;;;;;;5005833;28;20456;-68
2023/09/02 03:54:06;;;;;;;8.00;5.63;;;16.80;33.50;;;;;;5006635;28;20479;-68
2023/09/02 03:56:36;;;;;;;11.03;5.50;;;16.80;33.50;;;;;;5007060;28;20468;-68
2023/09/02 03:59:03;;;;;;;8.93;5.90;;;16.80;33.30;;;;;;5009015;28;20558;-68
2023/09/02 04:01:32;;;;;;;10.03;5.60;;;16.80;33.20;;;;;;5005970;28;20977;-68
2023/09/02 04:03:58;;;;;;;13.23;6.20;;;16.80;33.80;;;;;;5006193;28;20889;-68
2023/09/02 04:06:25;;;;;;;7.10;5.50;;;16.80;33.10;;;;;;5002997;28;20472;-68
2023/09/02 04:08:52;;;;;;;7.37;6.00;;;16.80;33.20;;;;;;5008698;28;20483;-68
2023/09/02 04:11:19;;;;;;;10.63;6.20;;;16.70;33.10;;;;;;5007922;28;20455;-68
2023/09/02 04:13:45;;;;;;;8.90;5.90;;;16.70;33.10;;;;;;5003921;28;20498;-68
2023/09/02 04:16:12;;;;;;;8.33;5.80;;;16.70;33.20;;;;;;5013045;28;20448;-68
2023/09/02 04:18:40;;;;;;;8.80;5.70;;;16.70;33.10;;;;;;5012134;28;20456;-68
2023/09/02 04:21:09;;;;;;;8.40;6.00;;;16.70;33.20;;;;;;5004965;28;20463;-68
2023/09/02 04:23:35;;;;;;;11.07;5.80;;;16.60;33.00;;;;;;5015525;28;21070;-68
2023/09/02 04:26:03;;;;;;;10.07;5.80;;;16.60;33.10;;;;;;5011710;28;20479;-68
2023/09/02 04:28:30;;;;;;;10.23;6.83;;;16.60;33.10;;;;;;5014332;28;20517;-68
2023/09/02 04:30:57;;;;;;;8.47;5.70;;;16.60;33.70;;;;;;5010568;28;21047;-69
2023/09/02 04:33:24;;;;;;;9.07;6.53;;;16.60;33.10;;;;;;5018302;28;21004;-68
2023/09/02 04:35:53;;;;;;;9.20;6.27;;;16.60;33.10;;;;;;5006343;28;20526;-68
2023/09/02 04:38:19;;;;;;;8.70;5.57;;;16.60;33.20;;;;;;5017056;28;20467;-68
2023/09/02 04:40:46;;;;;;;8.80;5.90;;;16.60;33.20;;;;;;5011182;28;20578;-68
2023/09/02 04:43:14;;;;;;;8.30;5.70;;;16.50;33.20;;;;;;5015491;28;20486;-68
2023/09/02 04:45:42;;;;;;;8.43;5.70;;;16.60;33.20;;;;;;5013510;28;20602;-68
2023/09/02 04:48:10;;;;;;;10.03;6.63;;;16.60;33.20;;;;;;5009063;28;20459;-68
2023/09/02 04:50:37;;;;;;;9.70;5.70;;;16.60;33.20;;;;;;5012418;28;20460;-68
2023/09/02 04:53:07;;;;;;;8.10;5.83;;;16.60;33.10;;;;;;5004612;28;20475;-68
2023/09/02 04:55:34;;;;;;;8.93;6.33;;;16.60;33.10;;;;;;5010744;28;20483;-69
2023/09/02 04:58:01;;;;;;;7.47;5.27;;;16.60;33.10;;;;;;5011323;28;20467;-68
2023/09/02 05:00:28;;;;;;;9.67;6.50;;;16.60;33.10;;;;;;5009689;28;20464;-68
2023/09/02 05:02:56;;;;;;;10.40;6.00;;;16.60;33.00;;;;;;5005284;28;20463;-68
2023/09/02 05:05:24;;;;;;;7.73;5.30;;;16.70;33.00;;;;;;5001695;28;20488;-68
2023/09/02 05:07:51;;;;;;;14.00;6.70;;;17.00;32.60;;;;;;5006069;28;20460;-68
2023/09/02 05:10:19;;;;;;;8.40;5.13;;;17.30;31.80;;;;;;5007556;28;20467;-68
2023/09/02 05:12:45;;;;;;;8.90;5.50;;;17.70;31.10;;;;;;5006328;28;20455;-68
2023/09/02 05:15:12;;;;;;;7.17;4.63;;;18.20;30.00;;;;;;5015869;28;20463;-68
2023/09/02 05:17:39;;;;;;;8.90;4.70;;;18.80;28.40;;;;;;5007704;28;20455;-68
2023/09/02 05:20:07;;;;;;;7.87;4.77;;;19.20;27.20;;;;;;5004683;28;20456;-68
2023/09/02 05:22:35;;;;;;;7.70;4.93;;;19.50;25.70;;;;;;5007483;28;20939;-68
2023/09/02 05:25:02;;;;;;;9.47;4.37;;;19.70;24.50;;;;;;5002131;28;20476;-68
2023/09/02 05:27:32;;;;;;;6.87;4.87;;;19.90;23.50;;;;;;5009558;28;20475;-68
2023/09/02 05:29:58;;;;;;;7.97;4.37;;;20.10;23.00;;;;;;5004884;28;20474;-68
2023/09/02 05:32:25;;;;;;;8.10;4.70;;;20.30;22.40;;;;;;5008632;28;20475;-68
2023/09/02 05:34:52;;;;;;;8.03;5.50;;;20.30;22.40;;;;;;5010080;28;20494;-68
2023/09/02 05:37:18;;;;;;;8.83;4.13;;;20.40;22.20;;;;;;5007684;28;20468;-68
2023/09/02 05:39:45;;;;;;;7.80;4.63;;;20.50;21.50;;;;;;5002115;28;20496;-68
2023/09/02 05:42:12;;;;;;;6.90;4.03;;;20.50;20.40;;;;;;5008573;28;20467;-68
2023/09/02 05:44:41;;;;;;;7.03;4.47;;;20.60;20.10;;;;;;5004151;28;20476;-68
2023/09/02 05:47:08;;;;;;;5.63;4.10;;;20.60;20.00;;;;;;5006794;28;20483;-68
2023/09/02 05:49:37;;;;;;;6.30;4.17;;;21.00;19.50;;;;;;5004515;28;20904;-68
2023/09/02 05:52:05;;;;;;;7.20;5.17;;;21.40;18.60;;;;;;5007845;28;20495;-68
2023/09/02 05:54:32;;;;;;;8.50;4.50;;;21.70;17.50;;;;;;5005811;28;20498;-68
2023/09/02 05:56:59;;;;;;;9.70;4.83;;;21.90;17.00;;;;;;5005714;28;20457;-68
2023/09/02 05:59:26;;;;;;;7.10;4.37;;;22.20;16.20;;;;;;5010862;28;20459;-68
2023/09/02 06:01:56;;;;;;;7.50;5.20;;;22.70;15.20;;;;;;5009514;28;20508;-68
2023/09/02 06:04:23;;;;;;;6.30;4.37;;;23.70;13.30;;;;;;4999781;28;20493;-68
2023/09/02 06:06:49;;;;;;;6.70;4.40;;;24.70;11.10;;;;;;5004513;28;20852;-68
2023/09/02 06:09:16;;;;;;;5.90;4.07;;;25.90;8.30;;;;;;5035403;23;20497;-65
2023/09/02 06:11:43;;;;;;;7.20;4.97;;;27.20;5.40;;;;;;5028550;28;20577;-65
2023/09/02 06:14:10;;;;;;;6.10;4.27;;;28.30;2.90;;;;;;5028261;28;20481;-65
2023/09/02 06:16:37;;;;;;;7.30;4.70;;;29.60;1.00;;;;;;5028985;28;20462;-65
2023/09/02 06:19:05;;;;;;;7.80;4.03;;;30.80;1.00;;;;;;5027530;28;20459;-65
2023/09/02 06:21:31;;;;;;;9.87;4.43;;;31.80;1.00;;;;;;5030312;28;20453;-66
2023/09/02 06:23:58;;;;;;;7.60;4.67;;;32.80;1.00;;;;;;5024079;28;20845;-66
2023/09/02 06:26:25;;;;;;;5.90;3.57;;;33.70;1.00;;;;;;5029390;28;20482;-66
2023/09/02 06:28:52;;;;;;;6.33;4.33;;;34.60;1.00;;;;;;5027424;28;20582;-65
2023/09/02 06:31:19;;;;;;;6.10;3.83;;;35.60;1.00;;;;;;5027153;28;20471;-66
2023/09/02 06:33:45;;;;;;;6.87;4.70;;;36.70;1.00;;;;;;5028658;28;20483;-66
2023/09/02 06:36:16;;;;;;;6.47;4.13;;;37.70;1.00;;;;;;5027201;28;20459;-66
2023/09/02 06:38:43;;;;;;;6.60;4.17;;;38.60;1.00;;;;;;5029175;28;20542;-66
2023/09/02 06:41:11;;;;;;;5.07;3.77;;;39.30;1.00;;;;;;5027342;28;20455;-65
2023/09/02 06:43:38;;;;;;;5.13;3.77;;;40.10;1.00;;;;;;5026492;28;20511;-66
2023/09/02 06:46:10;;;;;;;5.80;4.10;;;40.80;1.00;;;;;;5024191;28;21619;-66
2023/09/02 06:48:37;;;;;;;5.70;3.20;;;41.50;1.00;;;;;;5028367;28;20560;-66
2023/09/02 06:51:03;;;;;;;5.20;3.73;;;42.10;1.00;;;;;;5024783;28;20459;-65
2023/09/02 06:53:32;;;;;;;4.67;3.23;;;42.70;1.00;;;;;;5029332;28;21132;-66
2023/09/02 06:55:58;;;;;;;5.43;3.67;;;43.60;1.00;;;;;;5028901;28;20458;-67
2023/09/02 06:58:25;;;;;;;6.20;3.57;;;44.40;1.00;;;;;;5029535;28;20451;-65
2023/09/02 07:00:52;;;;;;;4.90;3.40;;;44.70;1.00;;;;;;5028156;28;20982;-66
2023/09/02 07:03:18;;;;;;;5.73;3.73;;;45.40;1.00;;;;;;5026686;28;20479;-66
2023/09/02 07:05:45;;;;;;;5.80;3.90;;;46.10;1.00;;;;;;5027101;28;20470;-66
2023/09/02 07:08:12;;;;;;;4.87;3.43;;;46.50;1.00;;;;;;5029095;28;20481;-66
2023/09/02 07:10:40;;;;;;;4.97;3.30;;;46.90;1.00;;;;;;5023277;28;20455;-67
2023/09/02 07:13:06;;;;;;;6.10;3.60;;;47.20;1.00;;;;;;5027455;28;21182;-67
2023/09/02 07:15:34;;;;;;;4.67;3.33;;;47.40;1.00;;;;;;5026000;28;20463;-66
2023/09/02 07:18:02;;;;;;;3.80;2.70;;;47.80;1.00;;;;;;5024189;28;20451;-66
2023/09/02 07:20:28;;;;;;;4.93;3.27;;;48.00;1.00;;;;;;5027760;28;21038;-67
2023/09/02 07:22:55;;;;;;;4.33;2.83;;;48.20;1.00;;;;;;5027199;28;20476;-67
2023/09/02 07:25:22;;;;;;;4.87;3.10;;;48.60;1.00;;;;;;5025445;28;20470;-66
2023/09/02 07:27:50;;;;;;;5.03;3.30;;;48.90;1.00;;;;;;5027568;28;20458;-67
2023/09/02 07:30:17;;;;;;;6.07;3.33;;;49.20;1.00;;;;;;5024313;28;21060;-66
2023/09/02 07:32:43;;;;;;;4.10;3.10;;;49.70;1.00;;;;;;5027493;28;20462;-67
2023/09/02 07:35:10;;;;;;;6.00;3.33;;;50.00;1.00;;;;;;5027500;28;20461;-66
2023/09/02 07:37:37;;;;;;;5.83;3.23;;;50.30;1.00;;;;;;5027226;28;20489;-66
2023/09/02 07:40:04;;;;;;;4.47;3.10;;;50.60;1.00;;;;;;5028008;28;21045;-67
2023/09/02 07:42:31;;;;;;;4.27;3.00;;;50.60;1.00;;;;;;5021603;28;20554;-67
2023/09/02 07:44:59;;;;;;;4.33;2.67;;;50.80;1.00;;;;;;5024988;28;20932;-66
2023/09/02 07:47:26;;;;;;;4.60;3.00;;;51.40;1.00;;;;;;5026030;28;20569;-66
2023/09/02 07:49:54;;;;;;;6.00;3.13;;;51.70;1.00;;;;;;5028529;28;20454;-67
2023/09/02 07:52:20;;;;;;;4.60;2.87;;;51.70;1.00;;;;;;5026497;28;20497;-67
2023/09/02 07:54:47;;;;;;;5.33;2.77;;;51.80;1.00;;;;;;5027497;28;20479;-66
2023/09/02 07:57:14;;;;;;;4.37;2.93;;;52.30;1.00;;;;;;5027971;28;20485;-66
2023/09/02 07:59:40;;;;;;;6.17;2.73;;;52.70;1.00;;;;;;5026910;28;20466;-66
2023/09/02 08:05:11;;;;;;;3.97;2.53;;;53.20;1.00;;;;;;5015777;22;20463;-67
2023/09/02 08:07:38;;;;;;;5.20;3.10;;;53.50;1.00;;;;;;5008342;28;20462;-66
2023/09/02 08:10:05;;;;;;;4.40;2.43;;;53.70;1.00;;;;;;5006398;28;20514;-67
2023/09/02 08:12:32;;;;;;;4.87;2.40;;;54.10;1.00;;;;;;5006095;28;20790;-66
2023/09/02 08:14:58;;;;;;;4.97;3.00;;;54.30;1.00;;;;;;5007604;28;21026;-67
2023/09/02 08:17:26;;;;;;;3.83;2.27;;;54.50;1.00;;;;;;5006448;28;20490;-68
2023/09/02 08:19:52;;;;;;;7.03;3.23;;;54.80;1.00;;;;;;5007568;28;20460;-67
2023/09/02 08:22:20;;;;;;;4.10;2.47;;;54.80;1.00;;;;;;5006675;28;20466;-67
2023/09/02 08:24:47;;;;;;;4.60;2.33;;;54.80;1.00;;;;;;5004972;28;20475;-67
2023/09/02 08:27:14;;;;;;;4.20;2.57;;;55.00;1.00;;;;;;5007074;28;20473;-66
2023/09/02 08:29:40;;;;;;;4.40;1.70;;;54.70;1.00;;;;;;5007150;28;20458;-67
2023/09/02 08:32:07;;;;;;;4.00;2.13;;;54.70;1.00;;;;;;5007596;28;20475;-67
2023/09/02 08:34:34;;;;;;;5.00;2.30;;;54.80;1.00;;;;;;5007634;28;20486;-67
2023/09/02 08:37:00;;;;;;;3.77;2.47;;;55.10;1.00;;;;;;5007818;28;20487;-67
2023/09/02 08:39:29;;;;;;;4.10;2.70;;;55.20;1.00;;;;;;5007648;28;20462;-67
2023/09/02 08:41:55;;;;;;;5.27;2.47;;;55.30;1.00;;;;;;5005698;28;20463;-67
2023/09/02 08:44:26;;;;;;;3.70;2.20;;;55.30;1.00;;;;;;5004571;28;20511;-66
2023/09/02 08:46:55;;;;;;;3.30;1.50;;;55.20;1.00;;;;;;5007479;28;20447;-68
2023/09/02 08:49:22;;;;;;;4.93;4.50;;;55.20;1.00;;;;;;5008303;28;20494;-66
2023/09/02 08:51:49;;;;;;;3.27;2.00;;;55.10;1.00;;;;;;5008239;28;20454;-66
2023/09/02 08:54:17;;;;;;;4.27;1.80;;;55.10;1.00;;;;;;5003291;28;20471;-66
2023/09/02 08:56:46;;;;;;;5.67;2.00;;;55.30;1.00;;;;;;5003249;28;20482;-67
2023/09/02 08:59:14;;;;;;;4.00;2.17;;;55.40;1.00;;;;;;5008138;28;20452;-66
2023/09/02 09:01:42;;;;;;;3.93;2.10;;;55.30;1.00;;;;;;5003306;28;20502;-66
2023/09/02 09:04:09;;;;;;;3.70;1.80;;;55.30;1.00;;;;;;5007665;28;20548;-67
2023/09/02 09:06:38;;;;;;;3.77;1.67;;;55.10;1.00;;;;;;5005416;28;20470;-66
2023/09/02 09:09:07;;;;;;;3.10;1.67;;;55.00;1.00;;;;;;5011271;28;20462;-67
2023/09/02 09:11:37;;;;;;;4.67;2.00;;;54.90;1.00;;;;;;5008342;28;20467;-67
2023/09/02 09:14:06;;;;;;;3.40;1.90;;;54.60;1.00;;;;;;5010252;28;20782;-67
2023/09/02 09:16:37;;;;;;;3.17;1.63;;;54.30;1.00;;;;;;5010499;28;20459;-66
2023/09/02 09:19:04;;;;;;;3.63;1.80;;;54.30;1.00;;;;;;5010623;28;20550;-66
2023/09/02 09:21:31;;;;;;;4.60;2.17;;;53.20;1.00;;;;;;5010312;28;20460;-67
2023/09/02 09:23:58;;;;;;;3.87;1.83;;;52.80;1.00;;;;;;5010077;28;20490;-67
2023/09/02 09:26:26;;;;;;;4.00;1.73;;;53.00;1.00;;;;;;5010896;28;20812;-68
2023/09/02 09:28:54;;;;;;;4.37;1.73;;;53.50;1.00;;;;;;5011208;28;20459;-67
2023/09/02 09:31:23;;;;;;;3.30;1.63;;;54.20;1.00;;;;;;5004733;28;20475;-67
2023/09/02 09:33:51;;;;;;;5.70;1.50;;;54.60;1.00;;;;;;5008656;28;20486;-67
2023/09/02 09:36:20;;;;;;;3.73;1.50;;;54.70;1.00;;;;;;5011246;28;20963;-67
2023/09/02 09:38:47;;;;;;;3.40;1.37;;;54.80;1.00;;;;;;5011236;28;20529;-68
2023/09/02 09:41:14;;;;;;;4.87;1.40;;;55.30;1.00;;;;;;5007662;28;21161;-67
2023/09/02 09:43:41;;;;;;;3.67;1.70;;;55.50;1.00;;;;;;5010468;28;20479;-67
2023/09/02 09:46:07;;;;;;;5.43;2.13;;;55.80;1.00;;;;;;5010641;28;20466;-67
2023/09/02 09:48:46;;;;;;;3.50;1.60;;;56.10;1.00;;;;;;5007980;28;20455;-66
2023/09/02 09:51:22;;;;;;;3.50;1.60;;;56.30;1.00;;;;;;5010684;28;20845;-66
2023/09/02 09:53:49;;;;;;;3.33;1.27;;;56.50;1.00;;;;;;5009591;28;20506;-67
2023/09/02 09:56:16;;;;;;;3.63;1.70;;;56.90;1.00;;;;;;5009842;28;20650;-66
2023/09/02 09:58:42;;;;;;;5.95;1.98;;;57.20;1.00;;;;;;5008742;28;20225;-66
2023/09/02 10:01:09;;;;;;;3.60;1.70;;;57.40;1.00;;;;;;5005528;28;20228;-68
2023/09/02 10:03:37;;;;;;;3.45;1.60;;;57.20;1.00;;;;;;5008643;28;20252;-67
2023/09/02 10:06:05;;;;;;;3.10;1.80;;;57.00;1.00;;;;;;5009648;28;20693;-67
2023/09/02 10:08:49;;;;;;;4.22;1.60;;;57.20;1.00;;;;;;5009739;28;20197;-67
2023/09/02 10:11:21;;;;;;;2.70;1.27;;;57.30;1.00;;;;;;5008810;28;20308;-67
2023/09/02 10:13:49;;;;;;;2.80;1.23;;;57.20;1.00;;;;;;5008215;28;20315;-67
2023/09/02 10:16:17;;;;;;;4.20;1.47;;;57.00;1.00;;;;;;5006273;28;20220;-67
2023/09/02 10:18:47;;;;;;;3.33;1.50;;;56.90;1.00;;;;;;5009137;28;20224;-67
2023/09/02 10:21:15;;;;;;;3.73;1.70;;;56.90;1.00;;;;;;5007532;28;20254;-67
2023/09/02 10:23:47;;;;;;;3.50;1.10;;;56.60;1.00;;;;;;5008906;28;20310;-67
2023/09/02 10:26:19;;;;;;;3.40;1.40;;;56.30;1.00;;;;;;5009490;28;20458;-67
2023/09/02 10:28:50;;;;;;;3.60;1.17;;;56.30;1.00;;;;;;5007483;28;20451;-66
2023/09/02 10:31:22;;;;;;;4.03;1.60;;;55.70;1.00;;;;;;5007912;28;20483;-67
2023/09/02 10:33:58;;;;;;;2.80;1.17;;;55.50;1.00;;;;;;5003644;28;21136;-67
2023/09/02 10:36:29;;;;;;;4.03;1.50;;;55.30;1.00;;;;;;5005861;28;20460;-67
2023/09/02 10:39:01;;;;;;;3.30;1.43;;;55.20;1.00;;;;;;5008972;28;20510;-67
2023/09/02 10:41:30;;;;;;;3.90;1.50;;;55.20;1.00;;;;;;5008277;28;20463;-66
2023/09/02 10:43:57;;;;;;;3.10;1.40;;;54.80;1.00;;;;;;5008926;28;20553;-66
2023/09/02 10:46:25;;;;;;;3.40;1.50;;;54.40;1.00;;;;;;5007211;28;20569;-66
2023/09/02 10:48:54;;;;;;;5.20;1.27;;;53.60;1.00;;;;;;5009791;28;20459;-66
2023/09/02 10:51:22;;;;;;;3.20;1.43;;;53.30;1.00;;;;;;5007498;28;20478;-66
2023/09/02 10:54:00;;;;;;;3.60;1.70;;;53.00;1.00;;;;;;5004260;28;20554;-66
2023/09/02 10:56:27;;;;;;;3.33;1.60;;;52.30;1.00;;;;;;5009247;28;20458;-66
2023/09/02 10:58:54;;;;;;;3.87;1.40;;;51.70;1.00;;;;;;5008764;28;20506;-67
2023/09/02 11:01:22;;;;;;;4.47;1.87;;;51.30;1.00;;;;;;5005998;28;20476;-67
2023/09/02 11:03:49;;;;;;;4.33;1.73;;;50.40;1.00;;;;;;5008188;28;20484;-67
2023/09/02 11:06:18;;;;;;;5.00;2.40;;;48.80;1.00;;;;;;5002363;28;20471;-66
2023/09/02 11:08:48;;;;;;;3.87;2.00;;;46.70;1.00;;;;;;5006862;28;20459;-66
2023/09/02 11:11:15;;;;;;;3.10;1.37;;;44.70;1.00;;;;;;5004476;28;20475;-65
2023/09/02 11:14:20;;;;;;;5.37;1.63;;;42.80;1.00;;;;;;5008438;28;20595;-65
2023/09/02 11:17:25;;;;;;;3.93;1.50;;;41.20;1.00;;;;;;5004376;28;20541;-65
2023/09/02 11:19:56;;;;;;;4.57;1.67;;;39.90;1.00;;;;;;5005183;28;20459;-65
2023/09/02 11:22:49;;;;;;;4.60;1.90;;;39.00;1.00;;;;;;5005938;28;20468;-66
2023/09/02 11:25:41;;;;;;;3.57;1.47;;;38.30;1.00;;;;;;5005971;28;20492;-66
2023/09/02 11:28:09;;;;;;;4.07;2.20;;;37.60;1.00;;;;;;4994271;28;20448;-66
2023/09/02 11:30:37;;;;;;;5.60;1.90;;;37.00;1.00;;;;;;5006586;28;21050;-67
2023/09/02 11:33:05;;;;;;;4.20;2.10;;;36.60;1.00;;;;;;5008842;28;20839;-65
2023/09/02 11:35:33;;;;;;;4.10;1.90;;;36.10;1.00;;;;;;5005013;28;20464;-65
2023/09/02 11:38:02;;;;;;;4.00;1.80;;;35.60;1.00;;;;;;5005829;28;21004;-65
2023/09/02 11:40:29;;;;;;;3.93;1.53;;;35.20;1.00;;;;;;5008988;28;20471;-65
2023/09/02 11:42:59;;;;;;;3.77;1.67;;;34.80;1.00;;;;;;5007900;28;21191;-65
2023/09/02 11:45:30;;;;;;;4.43;1.63;;;34.40;1.00;;;;;;5007740;28;20456;-65
2023/09/02 11:47:57;;;;;;;5.30;1.83;;;34.10;1.00;;;;;;5008338;28;20847;-65
2023/09/02 11:50:24;;;;;;;5.83;1.73;;;33.70;1.00;;;;;;5008004;28;20877;-66
2023/09/02 11:52:54;;;;;;;3.80;1.90;;;33.40;1.00;;;;;;5007414;28;20457;-65
2023/09/02 11:55:23;;;;;;;4.10;1.67;;;33.20;1.00;;;;;;5005145;28;20515;-67
2023/09/02 11:57:51;;;;;;;6.20;1.93;;;33.00;1.00;;;;;;5006331;28;20558;-66
2023/09/02 12:00:19;;;;;;;5.03;1.90;;;32.80;1.00;;;;;;5007973;28;20460;-65
2023/09/02 12:02:47;;;;;;;4.13;1.70;;;32.60;1.00;;;;;;5008378;28;20466;-65
2023/09/02 12:05:16;;;;;;;4.90;2.37;;;32.40;1.00;;;;;;5003666;28;20471;-65
2023/09/02 12:07:44;;;;;;;5.17;2.07;;;32.20;1.00;;;;;;5007021;28;20452;-65
2023/09/02 12:10:12;;;;;;;4.60;1.97;;;32.10;1.00;;;;;;5007694;28;20674;-65
2023/09/02 12:12:45;;;;;;;4.07;1.53;;;32.00;1.00;;;;;;5003294;28;20472;-65
2023/09/02 12:15:12;;;;;;;3.73;1.70;;;31.90;1.00;;;;;;5003731;28;20499;-65
2023/09/02 12:17:40;;;;;;;4.20;2.00;;;31.70;1.00;;;;;;5005199;28;20488;-66
2023/09/02 12:20:08;;;;;;;4.27;1.87;;;31.60;1.00;;;;;;5006208;28;20805;-66
2023/09/02 12:22:37;;;;;;;5.53;1.60;;;31.40;1.00;;;;;;5004578;28;20496;-64
2023/09/02 12:25:14;;;;;;;4.30;1.73;;;31.30;1.00;;;;;;5007823;28;20503;-65
2023/09/02 12:27:41;;;;;;;3.30;1.40;;;31.10;1.00;;;;;;5008438;28;20456;-65
2023/09/02 12:30:09;;;;;;;4.47;1.67;;;30.90;1.00;;;;;;5006500;28;20470;-66
2023/09/02 12:32:36;;;;;;;4.43;1.80;;;30.70;1.00;;;;;;5005987;28;20503;-65
2023/09/02 12:35:09;;;;;;;3.73;1.57;;;30.50;1.00;;;;;;5008412;28;20484;-65
2023/09/02 12:37:36;;;;;;;4.37;1.97;;;30.30;1.00;;;;;;5005326;28;20456;-65
2023/09/02 12:40:10;;;;;;;3.93;1.80;;;30.00;1.00;;;;;;5004707;28;20940;-65
2023/09/02 12:42:37;;;;;;;4.10;1.60;;;29.90;1.00;;;;;;5011030;28;20459;-65
2023/09/02 12:45:05;;;;;;;4.50;1.97;;;29.70;1.00;;;;;;5009371;28;20467;-65
2023/09/02 12:47:34;;;;;;;4.77;1.47;;;29.40;1.00;;;;;;5008761;28;20537;-65
2023/09/02 12:50:02;;;;;;;6.53;1.90;;;29.30;1.00;;;;;;5011182;28;20473;-65
2023/09/02 12:52:31;;;;;;;6.63;2.47;;;29.20;1.00;;;;;;5006530;28;20464;-66
2023/09/02 12:54:59;;;;;;;4.47;2.10;;;29.10;1.00;;;;;;5010096;28;20475;-64
2023/09/02 12:57:27;;;;;;;5.00;1.93;;;29.10;1.00;;;;;;5011256;28;20459;-65
2023/09/02 12:59:54;;;;;;;4.70;1.90;;;29.00;1.00;;;;;;5011753;28;20530;-65